createdAt,value
2023-05-16T00:02:14.761Z,11.75
2023-05-16T00:04:42.677Z,11.27
2023-05-16T00:07:09.145Z,12.73
2023-05-16T00:09:35.624Z,12.60
2023-05-16T00:12:02.154Z,12.88
2023-05-16T00:14:28.619Z,13.77
2023-05-16T00:16:56.465Z,14.32
2023-05-16T00:19:23.023Z,14.88
2023-05-16T00:21:50.902Z,13.32
2023-05-16T00:24:17.341Z,14.45
2023-05-16T00:26:43.895Z,16.20
2023-05-16T00:29:10.322Z,15.60
2023-05-16T00:31:36.891Z,16.80
2023-05-16T00:34:03.452Z,17.47
2023-05-16T00:36:29.993Z,16.50
2023-05-16T00:38:57.800Z,16.80
2023-05-16T00:41:24.292Z,18.20
2023-05-16T00:43:50.745Z,19.27
2023-05-16T00:46:17.274Z,19.45
2023-05-16T00:48:43.801Z,19.10
2023-05-16T00:51:10.813Z,20.23
2023-05-16T00:53:37.352Z,19.13
2023-05-16T00:56:05.599Z,19.65
2023-05-16T00:58:32.931Z,20.58
2023-05-16T01:01:00.129Z,20.63
2023-05-16T01:03:27.131Z,21.27
2023-05-16T01:05:53.666Z,23.02
2023-05-16T01:08:20.158Z,24.13
2023-05-16T01:10:53.438Z,24.15
2023-05-16T01:13:27.264Z,24.35
2023-05-16T01:16:04.952Z,26.38
2023-05-16T01:18:40.217Z,23.98
2023-05-16T01:21:14.477Z,25.42
2023-05-16T01:23:51.239Z,26.60
2023-05-16T01:26:21.192Z,25.75
2023-05-16T01:28:49.409Z,26.45
2023-05-16T01:31:16.195Z,26.70
2023-05-16T01:33:43.268Z,28.88
2023-05-16T01:36:17.013Z,27.67
2023-05-16T01:38:48.468Z,28.67
2023-05-16T01:41:21.237Z,26.95
2023-05-16T01:43:51.366Z,28.58
2023-05-16T01:46:22.798Z,29.10
2023-05-16T01:48:53.381Z,30.50
2023-05-16T01:51:25.845Z,30.33
2023-05-16T01:53:55.320Z,30.38
2023-05-16T01:56:23.517Z,28.67
2023-05-16T01:58:51.931Z,32.70
2023-05-16T02:01:18.554Z,30.35
2023-05-16T02:03:45.128Z,33.67
2023-05-16T02:06:11.641Z,33.10
2023-05-16T02:08:38.109Z,33.65
2023-05-16T02:11:04.572Z,32.72
2023-05-16T02:13:32.441Z,33.30
2023-05-16T02:15:58.869Z,33.47
2023-05-16T02:18:25.430Z,35.25
2023-05-16T02:20:51.928Z,33.47
2023-05-16T02:23:18.385Z,35.85
2023-05-16T02:25:44.848Z,37.90
2023-05-16T02:28:11.418Z,35.45
2023-05-16T02:30:39.299Z,37.45
2023-05-16T02:33:05.881Z,37.17
2023-05-16T02:35:32.345Z,37.80
2023-05-16T02:37:58.871Z,39.78
2023-05-16T02:40:25.360Z,37.20
2023-05-16T02:42:51.786Z,38.17
2023-05-16T02:45:18.269Z,38.08
2023-05-16T02:47:46.121Z,38.28
2023-05-16T02:50:12.645Z,39.70
2023-05-16T02:52:39.115Z,37.13
2023-05-16T02:55:21.147Z,38.45
2023-05-16T02:57:48.913Z,42.47
2023-05-16T03:00:18.409Z,41.20
2023-05-16T03:02:46.604Z,40.50
2023-05-16T03:05:13.214Z,39.65
2023-05-16T03:07:39.943Z,41.35
2023-05-16T03:10:07.674Z,41.63
2023-05-16T03:12:34.144Z,39.72
2023-05-16T03:15:00.690Z,42.05
2023-05-16T03:17:27.293Z,42.38
2023-05-16T03:19:55.118Z,44.23
2023-05-16T03:22:21.562Z,43.80
2023-05-16T03:24:48.069Z,44.05
2023-05-16T03:27:14.590Z,44.13
2023-05-16T03:29:41.054Z,45.88
2023-05-16T03:32:07.761Z,46.10
2023-05-16T03:34:34.299Z,44.93
2023-05-16T03:37:02.104Z,45.20
2023-05-16T03:39:28.596Z,47.22
2023-05-16T03:41:55.074Z,46.67
2023-05-16T03:44:21.580Z,42.20
2023-05-16T03:46:48.047Z,45.38
2023-05-16T03:49:14.458Z,45.75
2023-05-16T03:51:40.929Z,48.42
2023-05-16T03:54:08.711Z,46.83
2023-05-16T03:56:35.197Z,49.22
2023-05-16T03:59:01.683Z,48.97
2023-05-16T04:01:28.504Z,47.35
2023-05-16T04:03:54.930Z,47.33
2023-05-16T04:06:21.722Z,47.70
2023-05-16T04:08:48.395Z,45.53
2023-05-16T04:11:16.173Z,47.05
2023-05-16T04:13:42.621Z,50.25
2023-05-16T04:16:09.112Z,47.83
2023-05-16T04:18:35.608Z,48.38
2023-05-16T04:21:02.082Z,50.40
2023-05-16T04:23:28.570Z,48.92
2023-05-16T04:25:55.046Z,47.95
2023-05-16T04:28:22.844Z,48.38
2023-05-16T04:30:49.298Z,48.55
2023-05-16T04:33:15.871Z,46.10
2023-05-16T04:35:42.430Z,45.85
2023-05-16T04:38:08.901Z,47.40
2023-05-16T04:40:35.349Z,46.03
2023-05-16T04:43:01.843Z,46.78
2023-05-16T04:45:29.923Z,44.50
2023-05-16T04:47:56.445Z,43.97
2023-05-16T04:50:22.933Z,44.45
2023-05-16T04:52:49.432Z,43.42
2023-05-16T04:55:16.165Z,45.28
2023-05-16T04:57:42.620Z,48.07
2023-05-16T05:00:10.180Z,45.17
2023-05-16T05:05:04.932Z,42.78
2023-05-16T05:07:32.169Z,48.15
2023-05-16T05:09:58.628Z,45.17
2023-05-16T05:12:25.279Z,47.95
2023-05-16T05:14:51.760Z,47.53
2023-05-16T05:17:18.333Z,48.33
2023-05-16T05:19:46.382Z,44.58
2023-05-16T05:22:12.821Z,45.63
2023-05-16T05:24:39.300Z,47.25
2023-05-16T05:27:06.092Z,47.10
2023-05-16T05:29:32.653Z,44.88
2023-05-16T05:31:59.163Z,46.72
2023-05-16T05:34:25.716Z,45.10
2023-05-16T05:36:53.496Z,43.55
2023-05-16T05:39:19.994Z,42.95
2023-05-16T05:41:46.562Z,43.80
2023-05-16T05:44:13.004Z,44.30
2023-05-16T05:46:39.799Z,45.17
2023-05-16T05:49:06.564Z,40.55
2023-05-16T05:51:33.090Z,42.42
2023-05-16T05:54:01.134Z,42.65
2023-05-16T05:56:27.732Z,43.28
2023-05-16T05:58:54.211Z,42.13
2023-05-16T06:01:20.872Z,41.08
2023-05-16T06:03:47.583Z,40.85
2023-05-16T06:06:14.157Z,43.20
2023-05-16T06:08:40.633Z,40.15
2023-05-16T06:11:08.512Z,39.13
2023-05-16T06:13:34.962Z,41.13
2023-05-16T06:16:01.414Z,41.63
2023-05-16T06:18:27.880Z,41.58
2023-05-16T06:20:54.386Z,37.83
2023-05-16T06:23:21.574Z,38.97
2023-05-16T06:25:48.121Z,38.13
2023-05-16T06:28:15.934Z,34.40
2023-05-16T06:30:42.386Z,37.50
2023-05-16T06:33:08.929Z,36.17
2023-05-16T06:35:35.467Z,35.60
2023-05-16T06:38:02.000Z,34.88
2023-05-16T06:40:28.475Z,33.00
2023-05-16T06:42:54.957Z,32.83
2023-05-16T06:45:22.836Z,33.42
2023-05-16T06:47:49.485Z,33.45
2023-05-16T06:50:16.023Z,32.43
2023-05-16T06:52:42.531Z,32.03
2023-05-16T06:55:09.764Z,31.88
2023-05-16T06:57:36.356Z,31.58
2023-05-16T07:00:03.051Z,29.45
2023-05-16T07:02:31.122Z,32.53
2023-05-16T07:04:57.727Z,31.63
2023-05-16T07:07:24.201Z,30.00
2023-05-16T07:09:50.757Z,31.08
2023-05-16T07:12:17.374Z,30.02
2023-05-16T07:14:43.922Z,30.23
2023-05-16T07:17:10.758Z,29.33
2023-05-16T07:19:38.794Z,27.05
2023-05-16T07:22:05.462Z,27.05
2023-05-16T07:24:32.013Z,29.00
2023-05-16T07:26:58.682Z,28.23
2023-05-16T07:29:27.902Z,26.90
2023-05-16T07:31:54.455Z,26.67
2023-05-16T07:34:20.998Z,27.02
2023-05-16T07:36:49.000Z,27.85
2023-05-16T07:39:15.504Z,25.48
2023-05-16T07:41:42.025Z,24.85
2023-05-16T07:44:08.497Z,25.45
2023-05-16T07:46:35.187Z,22.88
2023-05-16T07:49:01.795Z,22.92
2023-05-16T07:51:30.214Z,21.58
2023-05-16T07:53:58.072Z,20.40
2023-05-16T07:56:24.679Z,19.83
2023-05-16T07:58:51.193Z,19.67
2023-05-16T08:01:17.795Z,18.85
2023-05-16T08:03:44.314Z,20.33
2023-05-16T08:06:11.002Z,19.83
2023-05-16T08:08:37.586Z,19.83
2023-05-16T08:11:05.502Z,21.40
2023-05-16T08:13:32.024Z,22.20
2023-05-16T08:15:58.568Z,22.27
2023-05-16T08:18:25.221Z,23.10
2023-05-16T08:20:51.768Z,24.02
2023-05-16T08:23:18.859Z,22.70
2023-05-16T08:25:45.361Z,21.90
2023-05-16T08:28:13.231Z,21.30
2023-05-16T08:30:42.474Z,20.55
2023-05-16T08:33:09.479Z,20.85
2023-05-16T08:35:36.032Z,19.25
2023-05-16T08:38:02.612Z,19.67
2023-05-16T08:40:29.376Z,19.90
2023-05-16T08:42:56.044Z,17.73
2023-05-16T08:45:24.504Z,22.17
2023-05-16T08:47:55.262Z,19.92
2023-05-16T08:50:22.254Z,21.65
2023-05-16T08:52:51.894Z,20.98
2023-05-16T08:55:20.657Z,20.80
2023-05-16T08:57:49.648Z,21.55
2023-05-16T09:00:17.450Z,22.33
2023-05-16T09:02:45.666Z,24.40
2023-05-16T09:05:13.441Z,23.17
2023-05-16T09:07:40.018Z,24.40
2023-05-16T09:10:07.804Z,22.52
2023-05-16T09:12:34.615Z,23.77
2023-05-16T09:15:02.052Z,22.85
2023-05-16T09:17:39.938Z,25.60
2023-05-16T09:20:14.370Z,24.73
2023-05-16T09:22:49.665Z,24.83
2023-05-16T09:27:46.779Z,24.08
2023-05-16T09:30:15.184Z,23.73
2023-05-16T09:32:43.972Z,24.80
2023-05-16T09:35:16.603Z,23.88
2023-05-16T09:37:46.100Z,23.83
2023-05-16T09:40:13.289Z,23.13
2023-05-16T09:42:39.764Z,21.13
2023-05-16T09:45:07.344Z,23.90
2023-05-16T09:50:01.684Z,21.55
2023-05-16T09:52:29.991Z,22.17
2023-05-16T09:54:56.466Z,21.85
2023-05-16T09:57:22.974Z,21.67
2023-05-16T09:59:49.961Z,19.38
2023-05-16T10:02:16.944Z,21.42
2023-05-16T10:04:43.652Z,22.33
2023-05-16T10:07:10.908Z,19.67
2023-05-16T10:09:40.300Z,20.10
2023-05-16T10:12:10.677Z,19.17
2023-05-16T10:14:38.685Z,19.17
2023-05-16T10:17:07.701Z,19.83
2023-05-16T10:19:37.384Z,19.92
2023-05-16T10:22:06.031Z,20.00
2023-05-16T10:24:39.332Z,18.90
2023-05-16T10:27:07.300Z,19.13
2023-05-16T10:29:42.974Z,19.13
2023-05-16T10:32:23.358Z,17.98
2023-05-16T10:34:50.285Z,18.10
2023-05-16T10:37:17.063Z,17.67
2023-05-16T10:39:44.124Z,17.25
2023-05-16T10:42:12.121Z,17.20
2023-05-16T10:44:39.167Z,16.92
2023-05-16T10:47:05.745Z,17.95
2023-05-16T10:49:32.626Z,17.60
2023-05-16T10:52:07.571Z,17.52
2023-05-16T10:54:35.529Z,17.27
2023-05-16T10:57:04.878Z,17.83
2023-05-16T10:59:42.140Z,15.00
2023-05-16T11:02:23.262Z,14.97
2023-05-16T11:04:50.369Z,15.43
2023-05-16T11:07:18.383Z,14.93
2023-05-16T11:09:45.382Z,14.48
2023-05-16T11:12:12.945Z,14.07
2023-05-16T11:17:09.517Z,12.55
2023-05-16T11:19:41.565Z,11.80
2023-05-16T11:22:24.001Z,10.18
2023-05-16T11:24:53.186Z,9.73
2023-05-16T11:27:27.623Z,9.40
2023-05-16T11:30:02.596Z,9.80
2023-05-16T11:32:31.129Z,9.77
2023-05-16T11:34:58.108Z,7.90
2023-05-16T11:37:24.828Z,10.40
2023-05-16T11:39:51.423Z,10.97
2023-05-16T11:42:18.022Z,10.40
2023-05-16T11:44:44.744Z,11.27
2023-05-16T11:47:16.128Z,11.35
2023-05-16T11:49:42.722Z,11.77
2023-05-16T11:52:09.334Z,10.68
2023-05-16T11:54:36.163Z,12.03
2023-05-16T11:57:02.761Z,10.20
2023-05-16T11:59:29.691Z,10.27
2023-05-16T12:01:56.231Z,8.93
2023-05-16T12:04:24.262Z,8.23
2023-05-16T12:07:01.279Z,9.00
2023-05-16T12:09:27.996Z,9.63
2023-05-16T12:11:54.530Z,8.57
2023-05-16T12:14:21.298Z,8.65
2023-05-16T12:16:48.337Z,7.38
2023-05-16T12:19:15.693Z,7.50
2023-05-16T12:21:43.627Z,7.95
2023-05-16T12:24:11.493Z,8.30
2023-05-16T12:26:40.060Z,7.18
2023-05-16T12:29:06.681Z,6.68
2023-05-16T12:31:37.712Z,6.68
2023-05-16T12:34:04.232Z,7.05
2023-05-16T12:36:32.773Z,7.40
2023-05-16T12:39:02.200Z,7.95
2023-05-16T12:41:30.478Z,7.05
2023-05-16T12:44:06.792Z,6.93
2023-05-16T12:46:33.738Z,6.60
2023-05-16T12:49:02.487Z,6.60
2023-05-16T12:51:30.238Z,6.35
2023-05-16T12:54:06.062Z,5.15
2023-05-16T12:56:37.705Z,5.03
2023-05-16T12:59:04.238Z,5.10
2023-05-16T13:01:30.770Z,5.93
2023-05-16T13:03:57.417Z,6.23
2023-05-16T13:06:24.153Z,5.60
2023-05-16T13:08:50.674Z,6.20
2023-05-16T13:11:17.138Z,6.43
2023-05-16T13:13:45.304Z,7.35
2023-05-16T13:16:11.874Z,7.38
2023-05-16T13:18:38.464Z,6.63
2023-05-16T13:21:05.534Z,7.47
2023-05-16T13:23:32.337Z,6.15
2023-05-16T13:25:59.015Z,6.13
2023-05-16T13:28:26.604Z,6.47
2023-05-16T13:33:20.894Z,5.75
2023-05-16T13:35:47.541Z,5.63
2023-05-16T13:38:14.012Z,4.10
2023-05-16T13:40:42.686Z,4.50
2023-05-16T13:43:09.337Z,4.20
2023-05-16T13:45:35.852Z,4.30
2023-05-16T13:48:07.024Z,4.07
2023-05-16T13:50:34.095Z,3.95
2023-05-16T13:53:00.820Z,3.33
2023-05-16T13:55:27.672Z,3.72
2023-05-16T13:57:54.281Z,3.45
2023-05-16T14:02:50.420Z,3.80
2023-05-16T14:05:18.656Z,3.72
2023-05-16T14:07:46.874Z,3.47
2023-05-16T14:10:13.670Z,3.45
2023-05-16T14:12:40.192Z,2.97
2023-05-16T14:15:08.043Z,3.42
2023-05-16T14:17:34.618Z,3.15
2023-05-16T14:20:01.170Z,3.20
2023-05-16T14:22:29.010Z,2.90
2023-05-16T14:24:55.515Z,2.70
2023-05-16T14:27:22.010Z,3.20
2023-05-16T14:29:48.517Z,3.63
2023-05-16T14:32:15.103Z,3.50
2023-05-16T14:34:41.727Z,2.90
2023-05-16T14:37:08.190Z,3.95
2023-05-16T14:39:36.107Z,3.92
2023-05-16T14:42:02.629Z,3.95
2023-05-16T14:44:29.123Z,3.63
2023-05-16T14:46:55.624Z,3.63
2023-05-16T14:49:22.124Z,3.28
2023-05-16T14:51:48.649Z,2.97
2023-05-16T14:54:15.165Z,2.85
2023-05-16T14:56:42.992Z,2.45
2023-05-16T14:59:09.491Z,2.55
2023-05-16T15:01:36.150Z,2.53
2023-05-16T15:04:02.718Z,2.70
2023-05-16T15:06:29.356Z,2.60
2023-05-16T15:08:55.840Z,2.90
2023-05-16T15:11:22.337Z,3.25
2023-05-16T15:13:50.211Z,2.63
2023-05-16T15:16:16.879Z,2.70
2023-05-16T15:18:43.560Z,2.60
2023-05-16T15:21:10.172Z,2.60
2023-05-16T15:23:36.841Z,3.97
2023-05-16T15:26:04.035Z,2.57
2023-05-16T15:28:30.637Z,3.50
2023-05-16T15:30:58.601Z,2.97
2023-05-16T15:33:25.121Z,3.60
2023-05-16T15:35:51.579Z,2.83
2023-05-16T15:38:18.083Z,2.78
2023-05-16T15:40:44.543Z,2.85
2023-05-16T15:43:11.081Z,2.80
2023-05-16T15:45:40.163Z,2.58
2023-05-16T15:48:08.522Z,3.20
2023-05-16T15:50:37.377Z,2.70
2023-05-16T15:53:03.941Z,3.38
2023-05-16T15:55:30.582Z,3.10
2023-05-16T15:57:57.616Z,3.20
2023-05-16T16:00:24.716Z,2.70
2023-05-16T16:02:51.339Z,3.15
2023-05-16T16:05:19.458Z,2.58
2023-05-16T16:07:45.957Z,2.90
2023-05-16T16:10:12.723Z,3.08
2023-05-16T16:12:39.657Z,3.30
2023-05-16T16:15:07.405Z,3.38
2023-05-16T16:17:34.006Z,2.72
2023-05-16T16:20:00.786Z,3.30
2023-05-16T16:22:28.719Z,2.90
2023-05-16T16:24:56.145Z,2.28
2023-05-16T16:27:22.693Z,3.45
2023-05-16T16:29:49.225Z,2.78
2023-05-16T16:32:15.925Z,3.17
2023-05-16T16:34:42.453Z,2.75
2023-05-16T16:37:09.344Z,2.58
2023-05-16T16:42:05.842Z,3.05
2023-05-16T16:44:32.370Z,2.70
2023-05-16T16:46:59.137Z,4.18
2023-05-16T16:49:25.829Z,3.35
2023-05-16T16:51:52.581Z,3.00
2023-05-16T16:54:19.100Z,3.30
2023-05-16T16:56:46.984Z,3.60
2023-05-16T16:59:13.603Z,3.03
2023-05-16T17:01:40.158Z,3.00
2023-05-16T17:04:06.639Z,2.42
2023-05-16T17:06:33.316Z,2.58
2023-05-16T17:08:59.850Z,3.05
2023-05-16T17:11:26.349Z,2.90
2023-05-16T17:13:54.173Z,2.25
2023-05-16T17:16:20.666Z,2.80
2023-05-16T17:18:47.179Z,3.45
2023-05-16T17:21:13.716Z,2.50
2023-05-16T17:23:42.487Z,2.75
2023-05-16T17:26:11.818Z,2.15
2023-05-16T17:28:38.310Z,2.03
2023-05-16T17:31:06.195Z,1.40
2023-05-16T17:33:32.712Z,1.88
2023-05-16T17:35:59.218Z,2.25
2023-05-16T17:38:25.752Z,2.50
2023-05-16T17:40:52.257Z,2.42
2023-05-16T17:43:18.808Z,2.22
2023-05-16T17:45:45.279Z,2.70
2023-05-16T17:48:13.204Z,2.80
2023-05-16T17:50:39.735Z,2.28
2023-05-16T17:53:06.289Z,2.53
2023-05-16T17:55:32.773Z,2.25
2023-05-16T17:57:59.273Z,1.95
2023-05-16T18:00:25.961Z,2.22
2023-05-16T18:02:53.038Z,2.10
2023-05-16T18:05:21.291Z,3.25
2023-05-16T18:07:47.786Z,2.13
2023-05-16T18:10:14.299Z,1.80
2023-05-16T18:12:41.304Z,2.33
2023-05-16T18:15:09.003Z,2.50
2023-05-16T18:17:35.564Z,2.17
2023-05-16T18:20:02.308Z,2.63
2023-05-16T18:22:30.254Z,2.30
2023-05-16T18:24:56.723Z,1.77
2023-05-16T18:27:23.236Z,2.20
2023-05-16T18:29:49.742Z,2.33
2023-05-16T18:32:16.320Z,2.03
2023-05-16T18:34:42.891Z,2.70
2023-05-16T18:37:09.361Z,1.90
2023-05-16T18:39:37.215Z,2.25
2023-05-16T18:42:03.887Z,2.10
2023-05-16T18:44:30.453Z,1.70
2023-05-16T18:46:57.326Z,2.35
2023-05-16T18:49:23.914Z,1.90
2023-05-16T18:51:50.432Z,2.28
2023-05-16T18:54:17.441Z,1.80
2023-05-16T18:56:45.416Z,2.03
2023-05-16T18:59:11.929Z,1.75
2023-05-16T19:01:38.544Z,1.58
2023-05-16T19:04:05.150Z,2.47
2023-05-16T19:06:31.702Z,2.03
2023-05-16T19:08:58.209Z,2.75
2023-05-16T19:11:24.732Z,2.75
2023-05-16T19:13:52.651Z,2.92
2023-05-16T19:16:19.290Z,2.40
2023-05-16T19:18:45.968Z,1.73
2023-05-16T19:21:12.616Z,1.42
2023-05-16T19:23:39.126Z,1.55
2023-05-16T19:26:05.637Z,2.30
2023-05-16T19:28:32.109Z,1.70
2023-05-16T19:30:59.932Z,1.70
2023-05-16T19:33:26.543Z,3.05
2023-05-16T19:35:53.175Z,1.65
2023-05-16T19:38:19.771Z,1.87
2023-05-16T19:40:46.956Z,1.75
2023-05-16T19:43:13.590Z,1.70
2023-05-16T19:45:40.089Z,1.50
2023-05-16T19:48:08.570Z,1.80
2023-05-16T19:50:35.314Z,1.80
2023-05-16T19:53:01.880Z,1.50
2023-05-16T19:55:28.914Z,1.95
2023-05-16T19:57:55.694Z,1.88
2023-05-16T20:00:22.312Z,1.27
2023-05-16T20:02:48.849Z,1.85
2023-05-16T20:05:17.024Z,1.93
2023-05-16T20:07:43.708Z,1.20
2023-05-16T20:10:10.567Z,1.30
2023-05-16T20:12:37.313Z,1.77
2023-05-16T20:15:04.412Z,1.60
2023-05-16T20:17:30.925Z,1.60
2023-05-16T20:19:57.550Z,1.52
2023-05-16T20:22:25.645Z,1.50
2023-05-16T20:24:52.231Z,1.48
2023-05-16T20:27:18.751Z,2.83
2023-05-16T20:29:45.282Z,1.35
2023-05-16T20:32:11.838Z,1.85
2023-05-16T20:34:40.298Z,1.77
2023-05-16T20:37:08.076Z,2.25
2023-05-16T20:39:35.944Z,1.58
2023-05-16T20:42:02.427Z,1.42
2023-05-16T20:44:28.897Z,2.05
2023-05-16T20:46:55.394Z,2.00
2023-05-16T20:49:21.864Z,1.65
2023-05-16T20:51:48.325Z,1.75
2023-05-16T20:54:14.826Z,1.70
2023-05-16T20:56:42.701Z,1.70
2023-05-16T20:59:09.159Z,1.60
2023-05-16T21:01:35.724Z,1.70
2023-05-16T21:04:02.359Z,1.75
2023-05-16T21:06:28.859Z,1.93
2023-05-16T21:08:55.372Z,2.92
2023-05-16T21:11:21.888Z,1.67
2023-05-16T21:13:49.725Z,1.73
2023-05-16T21:16:16.237Z,2.28
2023-05-16T21:18:42.929Z,3.00
2023-05-16T21:21:09.569Z,2.22
2023-05-16T21:23:36.040Z,1.52
2023-05-16T21:26:02.524Z,2.25
2023-05-16T21:28:31.158Z,1.50
2023-05-16T21:31:00.572Z,1.80
2023-05-16T21:33:27.109Z,1.70
2023-05-16T21:35:53.636Z,2.10
2023-05-16T21:38:20.258Z,2.00
2023-05-16T21:40:46.914Z,1.85
2023-05-16T21:43:13.491Z,1.90
2023-05-16T21:45:40.200Z,1.63
2023-05-16T21:48:08.102Z,2.20
2023-05-16T21:50:34.780Z,1.83
2023-05-16T21:53:01.468Z,1.97
2023-05-16T21:55:28.283Z,2.40
2023-05-16T21:57:54.934Z,1.58
2023-05-16T22:00:21.439Z,1.73
2023-05-16T22:02:48.093Z,1.98
2023-05-16T22:05:16.954Z,2.50
2023-05-16T22:07:43.633Z,1.80
2023-05-16T22:10:10.984Z,1.80
2023-05-16T22:12:38.333Z,2.15
2023-05-16T22:15:05.625Z,1.85
2023-05-16T22:17:32.260Z,2.10
2023-05-16T22:19:58.941Z,2.10
2023-05-16T22:22:26.779Z,2.00
2023-05-16T22:24:53.298Z,1.83
2023-05-16T22:27:19.881Z,1.87
2023-05-16T22:29:46.414Z,1.70
2023-05-16T22:32:13.563Z,1.98
2023-05-16T22:34:40.054Z,1.90
2023-05-16T22:37:06.659Z,1.88
2023-05-16T22:39:34.645Z,1.95
2023-05-16T22:42:01.404Z,1.80
2023-05-16T22:44:28.095Z,1.67
2023-05-16T22:46:54.612Z,1.83
2023-05-16T22:49:21.289Z,2.47
2023-05-16T22:51:48.056Z,2.07
2023-05-16T22:54:14.568Z,1.90
2023-05-16T22:56:42.682Z,1.67
2023-05-16T22:59:09.210Z,2.72
2023-05-16T23:01:35.766Z,1.85
2023-05-16T23:04:02.479Z,1.83
2023-05-16T23:06:29.120Z,2.03
2023-05-16T23:08:55.687Z,1.50
2023-05-16T23:11:22.180Z,2.10
2023-05-16T23:13:50.108Z,2.00
2023-05-16T23:16:16.597Z,1.63
2023-05-16T23:18:43.236Z,1.80
2023-05-16T23:21:09.806Z,1.90
2023-05-16T23:23:36.325Z,2.08
2023-05-16T23:26:02.968Z,3.17
2023-05-16T23:28:29.452Z,2.20
2023-05-16T23:30:57.278Z,1.85
2023-05-16T23:33:23.800Z,1.95
2023-05-16T23:35:50.350Z,1.92
2023-05-16T23:38:16.848Z,2.20
2023-05-16T23:40:43.668Z,2.10
2023-05-16T23:43:10.158Z,1.70
2023-05-16T23:45:36.634Z,1.80
2023-05-16T23:48:05.266Z,2.00
2023-05-16T23:50:31.786Z,1.77
2023-05-16T23:52:58.321Z,2.08
2023-05-16T23:55:24.852Z,1.77
2023-05-16T23:57:51.365Z,1.88
